Time;durP1;ratioP1;P1;durP2;ratioP2;P2;SDS_P1;SDS_P2;PMS_P1;PMS_P2;Temp;Humidity;BMP_temperature;BMP_pressure;BME280_temperature;BME280_humidity;BME280_pressure;Samples;Min_cycle;Max_cycle;Signal;HPM_P1;HPM_P2
2022/08/18 00:00:45;;;;;;;3.30;3.10;;;;;;;;;;5121243;28;20302;-67
2022/08/18 00:03:14;;;;;;;3.67;3.35;;;;;;;;;;5121442;28;20214;-67
2022/08/18 00:05:41;;;;;;;3.58;3.28;;;;;;;;;;5121395;28;20256;-66
2022/08/18 00:08:09;;;;;;;3.42;3.13;;;;;;;;;;5121272;28;20222;-67
2022/08/18 00:10:36;;;;;;;3.25;2.95;;;;;;;;;;5120939;28;20252;-67
2022/08/18 00:13:04;;;;;;;3.47;3.17;;;;;;;;;;5121399;28;20260;-67
2022/08/18 00:15:31;;;;;;;3.67;3.40;;;;;;;;;;5120789;28;20211;-66
2022/08/18 00:17:58;;;;;;;3.97;3.67;;;;;;;;;;5119953;28;20207;-66
2022/08/18 00:20:27;;;;;;;3.60;3.40;;;;;;;;;;5120001;28;20275;-66
2022/08/18 00:22:55;;;;;;;3.95;3.60;;;;;;;;;;5120258;28;20275;-66
2022/08/18 00:25:23;;;;;;;3.38;3.08;;;;;;;;;;5120004;28;20268;-67
2022/08/18 00:27:50;;;;;;;3.38;3.08;;;;;;;;;;5120303;28;20284;-66
2022/08/18 00:30:19;;;;;;;3.67;3.00;;;;;;;;;;5120036;28;20231;-66
2022/08/18 00:32:49;;;;;;;3.67;3.47;;;;;;;;;;5119957;28;20219;-66
2022/08/18 00:35:20;;;;;;;3.40;3.20;;;;;;;;;;5119958;28;20203;-66
2022/08/18 00:37:49;;;;;;;3.65;3.35;;;;;;;;;;5117884;28;20221;-66
2022/08/18 00:40:18;;;;;;;3.50;3.20;;;;;;;;;;5119780;28;20202;-66
2022/08/18 00:42:46;;;;;;;3.83;3.47;;;;;;;;;;5119942;28;20203;-66
2022/08/18 00:45:15;;;;;;;4.97;3.60;;;;;;;;;;5120000;28;20211;-66
2022/08/18 00:47:42;;;;;;;3.70;3.50;;;;;;;;;;5120298;28;20253;-68
2022/08/18 00:50:10;;;;;;;4.07;3.58;;;;;;;;;;5119498;28;20510;-66
2022/08/18 00:52:38;;;;;;;3.72;3.42;;;;;;;;;;5119768;28;20211;-66
2022/08/18 00:55:07;;;;;;;3.60;3.30;;;;;;;;;;5119804;28;20210;-66
2022/08/18 00:57:34;;;;;;;3.92;3.60;;;;;;;;;;5119814;28;20210;-66
2022/08/18 01:00:10;;;;;;;3.67;3.38;;;;;;;;;;5119227;28;20724;-66
2022/08/18 01:02:40;;;;;;;4.40;3.30;;;;;;;;;;5119650;28;20203;-66
2022/08/18 01:05:09;;;;;;;4.07;3.63;;;;;;;;;;5102232;28;20595;-66
2022/08/18 01:07:39;;;;;;;3.90;3.60;;;;;;;;;;5119257;28;20347;-66
2022/08/18 01:10:08;;;;;;;3.65;3.45;;;;;;;;;;5119107;28;20195;-66
2022/08/18 01:12:36;;;;;;;3.70;3.50;;;;;;;;;;5119485;28;20210;-66
2022/08/18 01:15:04;;;;;;;3.63;3.33;;;;;;;;;;5119572;28;20199;-66
2022/08/18 01:23:12;;;;;;;3.58;3.38;;;;;;;;;;5119028;28;20190;-66
2022/08/18 01:28:34;;;;;;;3.53;3.30;;;;;;;;;;5081952;28;20239;-66
2022/08/18 01:31:02;;;;;;;3.70;3.50;;;;;;;;;;5118958;28;20210;-66
2022/08/18 01:33:32;;;;;;;4.07;3.78;;;;;;;;;;5118812;28;20199;-66
2022/08/18 01:36:01;;;;;;;3.95;3.75;;;;;;;;;;5118819;28;20209;-66
2022/08/18 01:38:30;;;;;;;3.70;3.40;;;;;;;;;;5118893;28;20206;-66
2022/08/18 01:40:58;;;;;;;3.83;3.63;;;;;;;;;;5118944;28;20583;-66
2022/08/18 01:43:26;;;;;;;3.88;3.67;;;;;;;;;;5118729;28;20202;-66
2022/08/18 01:45:59;;;;;;;4.05;3.67;;;;;;;;;;5118919;28;20211;-66
2022/08/18 01:48:27;;;;;;;3.83;3.53;;;;;;;;;;5118270;28;20614;-66
2022/08/18 01:50:55;;;;;;;4.03;3.60;;;;;;;;;;5117851;28;20198;-66
2022/08/18 01:53:23;;;;;;;3.63;3.33;;;;;;;;;;5118800;28;20202;-66
2022/08/18 01:55:52;;;;;;;4.05;3.75;;;;;;;;;;5118253;28;20203;-67
2022/08/18 01:58:26;;;;;;;3.53;3.33;;;;;;;;;;5118089;28;20207;-66
2022/08/18 02:00:55;;;;;;;4.00;3.80;;;;;;;;;;5118286;28;20202;-66
2022/08/18 02:03:25;;;;;;;3.80;3.50;;;;;;;;;;5118709;28;20553;-66
2022/08/18 02:05:55;;;;;;;4.18;3.78;;;;;;;;;;5118315;28;20246;-66
2022/08/18 02:08:23;;;;;;;3.65;3.45;;;;;;;;;;5118143;28;20234;-66
2022/08/18 02:10:52;;;;;;;3.78;3.47;;;;;;;;;;5117335;28;20210;-66
2022/08/18 02:13:19;;;;;;;3.58;3.35;;;;;;;;;;5118099;28;20203;-66
2022/08/18 02:15:46;;;;;;;3.97;3.72;;;;;;;;;;5118126;28;20475;-66
2022/08/18 02:18:14;;;;;;;3.63;3.42;;;;;;;;;;5117858;28;20526;-66
2022/08/18 02:20:42;;;;;;;4.00;3.70;;;;;;;;;;5118026;28;20236;-66
2022/08/18 02:23:10;;;;;;;4.00;3.60;;;;;;;;;;5117990;28;20230;-66
2022/08/18 02:25:37;;;;;;;4.07;3.78;;;;;;;;;;5117096;28;20203;-66
2022/08/18 02:28:07;;;;;;;3.97;3.67;;;;;;;;;;5117736;28;20222;-66
2022/08/18 02:30:36;;;;;;;4.00;3.70;;;;;;;;;;5117378;28;20238;-66
2022/08/18 02:33:03;;;;;;;4.05;3.85;;;;;;;;;;5117728;28;20211;-66
2022/08/18 02:35:32;;;;;;;4.05;3.55;;;;;;;;;;5118355;28;20203;-66
2022/08/18 02:38:00;;;;;;;4.20;3.90;;;;;;;;;;5117713;28;20286;-66
2022/08/18 02:40:27;;;;;;;4.22;3.92;;;;;;;;;;5117687;28;20626;-66
2022/08/18 02:42:54;;;;;;;4.07;3.78;;;;;;;;;;5117128;28;20579;-66
2022/08/18 02:45:23;;;;;;;3.70;3.50;;;;;;;;;;5116665;28;20485;-66
2022/08/18 02:47:52;;;;;;;4.45;4.18;;;;;;;;;;5116213;28;20233;-66
2022/08/18 02:50:20;;;;;;;3.92;3.72;;;;;;;;;;5116857;28;20290;-66
2022/08/18 02:52:47;;;;;;;3.90;3.70;;;;;;;;;;5117033;28;20210;-66
2022/08/18 02:55:15;;;;;;;3.63;3.42;;;;;;;;;;5116822;28;20203;-66
2022/08/18 02:57:43;;;;;;;3.75;3.55;;;;;;;;;;5116787;28;20203;-66
2022/08/18 03:00:11;;;;;;;4.10;3.90;;;;;;;;;;5116748;28;20210;-66
2022/08/18 03:02:40;;;;;;;4.20;3.92;;;;;;;;;;5116847;28;20202;-66
2022/08/18 03:05:08;;;;;;;4.47;4.10;;;;;;;;;;5117034;28;20207;-66
2022/08/18 03:07:36;;;;;;;4.45;4.15;;;;;;;;;;5116473;28;20219;-66
2022/08/18 03:10:03;;;;;;;3.92;3.65;;;;;;;;;;5116790;28;20481;-66
2022/08/18 03:12:30;;;;;;;3.90;3.70;;;;;;;;;;5116239;28;20203;-66
2022/08/18 03:15:00;;;;;;;4.22;4.03;;;;;;;;;;5116695;28;20327;-66
2022/08/18 03:17:28;;;;;;;3.92;3.65;;;;;;;;;;5116757;28;20570;-66
2022/08/18 03:19:57;;;;;;;4.45;4.15;;;;;;;;;;5116657;28;20260;-66
2022/08/18 03:22:24;;;;;;;4.28;3.97;;;;;;;;;;5116256;28;20214;-66
2022/08/18 03:24:51;;;;;;;4.10;3.90;;;;;;;;;;5116461;28;20210;-66
2022/08/18 03:27:19;;;;;;;4.15;3.85;;;;;;;;;;5116276;28;20267;-66
2022/08/18 03:29:46;;;;;;;4.43;4.03;;;;;;;;;;5116219;28;20241;-66
2022/08/18 03:32:14;;;;;;;3.67;3.47;;;;;;;;;;5116328;28;20702;-66
2022/08/18 03:34:42;;;;;;;3.92;3.72;;;;;;;;;;5115726;28;20542;-66
2022/08/18 03:37:14;;;;;;;4.13;3.83;;;;;;;;;;5116620;28;20203;-66
2022/08/18 03:39:42;;;;;;;4.25;4.03;;;;;;;;;;5115891;28;20233;-66
2022/08/18 03:42:09;;;;;;;4.03;3.83;;;;;;;;;;5100938;28;20214;-66
2022/08/18 03:44:36;;;;;;;4.50;4.20;;;;;;;;;;5095354;28;20265;-66
2022/08/18 03:47:05;;;;;;;4.18;3.88;;;;;;;;;;5095232;28;20211;-66
2022/08/18 03:49:33;;;;;;;4.38;4.07;;;;;;;;;;5095733;28;20235;-66
2022/08/18 03:52:00;;;;;;;3.78;3.58;;;;;;;;;;5095231;28;20310;-66
2022/08/18 03:54:30;;;;;;;4.07;3.88;;;;;;;;;;5094883;28;20580;-66
2022/08/18 03:56:59;;;;;;;4.03;3.75;;;;;;;;;;5094959;28;20210;-66
2022/08/18 03:59:27;;;;;;;4.50;4.20;;;;;;;;;;5094942;28;20309;-66
2022/08/18 04:01:55;;;;;;;4.47;4.13;;;;;;;;;;5095259;28;20204;-66
2022/08/18 04:04:24;;;;;;;4.00;3.80;;;;;;;;;;5095957;28;20207;-66
2022/08/18 04:06:54;;;;;;;4.60;4.30;;;;;;;;;;5095767;28;20264;-66
2022/08/18 04:09:23;;;;;;;4.28;4.00;;;;;;;;;;5109290;28;20231;-66
2022/08/18 04:11:52;;;;;;;4.18;3.88;;;;;;;;;;5116663;28;20226;-66
2022/08/18 04:14:20;;;;;;;4.13;3.83;;;;;;;;;;5116524;28;20272;-66
2022/08/18 04:16:48;;;;;;;4.10;3.80;;;;;;;;;;5116447;28;20210;-66
2022/08/18 04:19:16;;;;;;;4.70;4.10;;;;;;;;;;5116817;28;20207;-66
2022/08/18 04:21:44;;;;;;;4.55;4.22;;;;;;;;;;5116507;28;20242;-66
2022/08/18 04:24:12;;;;;;;4.70;4.40;;;;;;;;;;5116918;28;20203;-66
2022/08/18 04:26:41;;;;;;;4.30;4.00;;;;;;;;;;5116801;28;20544;-66
2022/08/18 04:29:11;;;;;;;4.47;4.18;;;;;;;;;;5116262;28;20223;-66
2022/08/18 04:31:38;;;;;;;4.28;4.00;;;;;;;;;;5116960;28;20195;-66
2022/08/18 04:34:06;;;;;;;4.35;4.05;;;;;;;;;;5116675;28;20215;-66
2022/08/18 04:36:34;;;;;;;4.10;3.80;;;;;;;;;;5117449;28;20663;-66
2022/08/18 04:39:02;;;;;;;4.30;4.00;;;;;;;;;;5119901;28;20268;-66
2022/08/18 04:41:29;;;;;;;4.10;3.80;;;;;;;;;;5119694;28;20195;-66
2022/08/18 04:43:58;;;;;;;4.32;4.03;;;;;;;;;;5120151;28;20236;-66
2022/08/18 04:46:27;;;;;;;4.25;4.00;;;;;;;;;;5119715;28;20203;-66
2022/08/18 04:48:57;;;;;;;4.40;4.10;;;;;;;;;;5119303;28;20291;-66
2022/08/18 04:51:25;;;;;;;4.25;3.95;;;;;;;;;;5119790;28;20234;-66
2022/08/18 04:53:52;;;;;;;4.43;4.10;;;;;;;;;;5119495;28;20206;-66
2022/08/18 04:56:24;;;;;;;4.10;3.85;;;;;;;;;;5119425;28;20199;-67
2022/08/18 04:58:52;;;;;;;4.43;4.10;;;;;;;;;;5119052;28;20199;-66
2022/08/18 05:01:20;;;;;;;4.03;3.83;;;;;;;;;;5118976;28;20318;-66
2022/08/18 05:03:49;;;;;;;4.38;4.07;;;;;;;;;;5106000;28;20265;-66
2022/08/18 05:06:17;;;;;;;4.38;4.07;;;;;;;;;;5098759;28;20276;-66
2022/08/18 05:08:45;;;;;;;3.90;3.70;;;;;;;;;;5098910;28;20631;-66
2022/08/18 05:11:13;;;;;;;4.45;4.15;;;;;;;;;;5097899;28;20755;-66
2022/08/18 05:13:41;;;;;;;4.47;4.18;;;;;;;;;;5099321;28;20211;-66
2022/08/18 05:16:09;;;;;;;4.40;4.20;;;;;;;;;;5098859;28;20258;-66
2022/08/18 05:18:39;;;;;;;4.30;4.00;;;;;;;;;;5097357;28;20278;-66
2022/08/18 05:21:13;;;;;;;4.10;3.85;;;;;;;;;;5097332;28;20203;-66
2022/08/18 05:23:41;;;;;;;4.38;4.07;;;;;;;;;;5098024;28;20211;-66
2022/08/18 05:26:08;;;;;;;4.45;4.18;;;;;;;;;;5098282;28;20582;-66
2022/08/18 05:28:36;;;;;;;3.95;3.65;;;;;;;;;;5100574;28;20231;-66
2022/08/18 05:31:06;;;;;;;4.65;4.38;;;;;;;;;;5117516;28;20205;-66
2022/08/18 05:33:34;;;;;;;4.30;4.00;;;;;;;;;;5118109;28;20713;-66
2022/08/18 05:36:03;;;;;;;4.25;3.95;;;;;;;;;;5118044;28;20618;-66
2022/08/18 05:38:46;;;;;;;4.60;4.20;;;;;;;;;;5118543;28;20195;-66
2022/08/18 05:41:16;;;;;;;4.53;4.22;;;;;;;;;;5118170;28;20551;-66
2022/08/18 05:43:45;;;;;;;4.50;4.20;;;;;;;;;;5116638;28;20264;-66
2022/08/18 05:46:13;;;;;;;4.60;4.30;;;;;;;;;;5117450;28;20207;-66
2022/08/18 05:48:40;;;;;;;4.35;4.15;;;;;;;;;;5118106;28;20242;-66
2022/08/18 05:51:12;;;;;;;4.50;4.20;;;;;;;;;;5116762;28;20331;-66
2022/08/18 05:56:46;;;;;;;4.28;4.07;;;;;;;;;;5116945;28;20195;-66
2022/08/18 05:59:14;;;;;;;4.25;4.03;;;;;;;;;;5117035;28;20203;-66
2022/08/18 06:01:44;;;;;;;4.43;4.15;;;;;;;;;;5117410;28;20202;-67
2022/08/18 06:04:16;;;;;;;4.50;4.20;;;;;;;;;;5116999;28;20347;-66
2022/08/18 06:06:44;;;;;;;4.43;4.13;;;;;;;;;;5116807;28;20203;-66
2022/08/18 06:09:13;;;;;;;3.95;3.75;;;;;;;;;;5117520;28;20227;-66
2022/08/18 06:11:43;;;;;;;4.38;4.07;;;;;;;;;;5117029;28;20207;-66
2022/08/18 06:14:10;;;;;;;4.50;4.10;;;;;;;;;;5117034;28;20314;-66
2022/08/18 06:16:43;;;;;;;4.65;4.35;;;;;;;;;;5117285;28;20623;-66
2022/08/18 06:19:19;;;;;;;4.30;4.10;;;;;;;;;;5115795;28;20282;-66
2022/08/18 06:21:49;;;;;;;4.47;4.18;;;;;;;;;;5116024;28;20265;-66
2022/08/18 06:24:20;;;;;;;4.38;4.10;;;;;;;;;;5116400;28;20199;-66
2022/08/18 06:26:54;;;;;;;4.53;4.22;;;;;;;;;;5116471;28;20190;-66
2022/08/18 06:29:38;;;;;;;4.30;4.00;;;;;;;;;;5116293;28;20253;-66
2022/08/18 06:32:09;;;;;;;4.50;4.20;;;;;;;;;;5117044;28;20271;-66
2022/08/18 06:34:43;;;;;;;4.50;4.20;;;;;;;;;;5116538;28;20206;-66
2022/08/18 06:37:13;;;;;;;3.70;3.50;;;;;;;;;;5116604;28;20202;-66
2022/08/18 06:39:45;;;;;;;4.60;4.30;;;;;;;;;;5116436;28;20609;-66
2022/08/18 06:42:16;;;;;;;4.30;4.00;;;;;;;;;;5117355;28;20218;-66
2022/08/18 06:44:47;;;;;;;4.50;4.20;;;;;;;;;;5116939;28;20246;-66
2022/08/18 06:47:19;;;;;;;4.55;4.25;;;;;;;;;;5116045;28;20545;-66
2022/08/18 06:49:50;;;;;;;4.63;4.32;;;;;;;;;;5115246;28;20226;-66
2022/08/18 06:52:21;;;;;;;4.50;4.20;;;;;;;;;;5115642;28;20301;-66
2022/08/18 06:54:49;;;;;;;4.57;4.28;;;;;;;;;;5095161;28;20211;-66
2022/08/18 06:57:28;;;;;;;4.53;4.25;;;;;;;;;;5094667;28;20209;-66
2022/08/18 06:59:57;;;;;;;4.80;4.50;;;;;;;;;;5094435;28;20196;-66
2022/08/18 07:02:26;;;;;;;4.63;4.32;;;;;;;;;;5094289;28;20204;-66
2022/08/18 07:05:01;;;;;;;4.75;4.40;;;;;;;;;;5095267;28;20219;-66
2022/08/18 07:07:34;;;;;;;4.80;4.40;;;;;;;;;;5095563;28;20268;-66
2022/08/18 07:10:02;;;;;;;4.70;4.40;;;;;;;;;;5094676;28;20237;-66
2022/08/18 07:12:31;;;;;;;4.50;4.20;;;;;;;;;;5094697;28;20544;-66
2022/08/18 07:15:00;;;;;;;4.63;4.32;;;;;;;;;;5095415;28;20269;-66
2022/08/18 07:17:28;;;;;;;4.93;4.53;;;;;;;;;;5094976;28;20214;-66
2022/08/18 07:20:09;;;;;;;4.50;4.20;;;;;;;;;;5099339;28;20188;-66
2022/08/18 07:22:51;;;;;;;4.65;4.35;;;;;;;;;;5115206;28;20252;-66
2022/08/18 07:25:21;;;;;;;4.50;4.20;;;;;;;;;;5115236;28;20195;-66
2022/08/18 07:27:51;;;;;;;4.90;4.60;;;;;;;;;;5114792;28;20233;-66
2022/08/18 07:30:28;;;;;;;4.38;4.07;;;;;;;;;;5115307;28;20325;-65
2022/08/18 07:32:58;;;;;;;4.95;4.65;;;;;;;;;;5115033;28;20207;-66
2022/08/18 07:35:29;;;;;;;4.85;4.55;;;;;;;;;;5115590;28;20203;-66
2022/08/18 07:38:01;;;;;;;4.70;4.40;;;;;;;;;;5115063;28;20203;-65
2022/08/18 07:40:33;;;;;;;5.15;4.65;;;;;;;;;;5114294;28;20206;-66
2022/08/18 07:43:05;;;;;;;4.63;4.32;;;;;;;;;;5114426;28;20211;-66
2022/08/18 07:45:35;;;;;;;4.60;4.30;;;;;;;;;;5114208;28;20214;-66
2022/08/18 07:48:06;;;;;;;4.90;4.60;;;;;;;;;;5112822;28;20462;-66
2022/08/18 07:50:35;;;;;;;4.47;4.18;;;;;;;;;;5113928;28;20219;-65
2022/08/18 07:53:07;;;;;;;4.63;4.32;;;;;;;;;;5113191;28;20733;-66
2022/08/18 07:55:36;;;;;;;4.70;4.40;;;;;;;;;;5114046;28;20199;-65
2022/08/18 07:58:11;;;;;;;5.10;4.70;;;;;;;;;;5112704;28;20291;-66
2022/08/18 08:00:47;;;;;;;4.90;4.50;;;;;;;;;;5113650;28;20199;-66
2022/08/18 08:03:26;;;;;;;5.10;4.80;;;;;;;;;;5113495;28;20263;-66
2022/08/18 08:05:57;;;;;;;5.10;4.70;;;;;;;;;;5113514;28;20210;-66
2022/08/18 08:08:30;;;;;;;4.72;4.43;;;;;;;;;;5113053;28;20207;-66
2022/08/18 08:11:05;;;;;;;4.72;4.43;;;;;;;;;;5116911;28;20539;-66
2022/08/18 08:13:40;;;;;;;5.07;4.78;;;;;;;;;;5118008;28;20210;-66
2022/08/18 08:16:12;;;;;;;4.80;4.50;;;;;;;;;;5117520;28;20602;-66
2022/08/18 08:18:43;;;;;;;4.53;4.28;;;;;;;;;;5117387;28;20274;-66
2022/08/18 08:21:11;;;;;;;4.47;4.18;;;;;;;;;;5117735;28;20199;-66
2022/08/18 08:23:45;;;;;;;4.55;4.25;;;;;;;;;;5116218;28;20207;-66
2022/08/18 08:26:21;;;;;;;4.50;4.20;;;;;;;;;;5116957;28;20275;-65
2022/08/18 08:28:53;;;;;;;4.88;4.57;;;;;;;;;;5116864;28;20230;-66
2022/08/18 08:31:25;;;;;;;4.72;4.43;;;;;;;;;;5117155;28;20222;-66
2022/08/18 08:33:54;;;;;;;5.25;4.85;;;;;;;;;;5116743;28;20207;-65
2022/08/18 08:36:24;;;;;;;4.28;4.07;;;;;;;;;;5118052;28;20283;-66
2022/08/18 08:38:55;;;;;;;5.00;4.60;;;;;;;;;;5117014;28;20203;-66
2022/08/18 08:41:26;;;;;;;5.00;4.70;;;;;;;;;;5115811;28;20263;-66
2022/08/18 08:44:10;;;;;;;5.10;4.80;;;;;;;;;;5103414;28;20211;-66
2022/08/18 08:46:41;;;;;;;5.07;4.68;;;;;;;;;;5096135;28;20317;-66
2022/08/18 08:49:10;;;;;;;5.05;4.75;;;;;;;;;;5096565;28;20588;-66
2022/08/18 08:51:40;;;;;;;4.75;4.45;;;;;;;;;;5096699;28;20204;-65
2022/08/18 08:54:10;;;;;;;4.90;4.53;;;;;;;;;;5096484;28;20207;-66
2022/08/18 08:56:41;;;;;;;5.00;4.70;;;;;;;;;;5096516;28;20230;-66
2022/08/18 08:59:10;;;;;;;4.63;4.22;;;;;;;;;;5095768;28;20211;-66
2022/08/18 09:01:44;;;;;;;5.07;4.70;;;;;;;;;;5095808;28;20269;-67
2022/08/18 09:04:19;;;;;;;4.93;4.53;;;;;;;;;;5095406;28;20204;-66
2022/08/18 09:06:50;;;;;;;4.78;4.47;;;;;;;;;;5094912;28;20442;-66
2022/08/18 09:09:25;;;;;;;5.20;4.80;;;;;;;;;;5094899;28;20214;-66
2022/08/18 09:12:07;;;;;;;4.82;4.47;;;;;;;;;;5107779;28;20195;-66
2022/08/18 09:14:47;;;;;;;4.60;4.30;;;;;;;;;;5115709;28;20206;-66
2022/08/18 09:17:24;;;;;;;4.72;4.43;;;;;;;;;;5115070;28;20707;-66
2022/08/18 09:19:58;;;;;;;4.57;4.28;;;;;;;;;;5115293;28;20276;-66
2022/08/18 09:22:31;;;;;;;5.18;4.88;;;;;;;;;;5114752;28;20262;-66
2022/08/18 09:24:58;;;;;;;5.07;4.78;;;;;;;;;;5115264;28;20287;-66
2022/08/18 09:27:36;;;;;;;5.30;4.90;;;;;;;;;;5115296;28;20195;-66
2022/08/18 09:30:06;;;;;;;4.88;4.57;;;;;;;;;;5115200;28;20614;-66
2022/08/18 09:32:38;;;;;;;4.95;4.65;;;;;;;;;;5115140;28;20301;-66
2022/08/18 09:35:14;;;;;;;4.90;4.60;;;;;;;;;;5114837;28;20199;-66
2022/08/18 09:37:46;;;;;;;4.70;4.40;;;;;;;;;;5107621;28;20256;-66
2022/08/18 09:43:09;;;;;;;5.25;4.88;;;;;;;;;;5095662;28;20543;-66
2022/08/18 09:45:58;;;;;;;5.50;5.10;;;;;;;;;;5095705;28;20203;-66
2022/08/18 09:48:28;;;;;;;5.32;4.93;;;;;;;;;;5095589;28;20239;-66
2022/08/18 09:51:01;;;;;;;4.95;4.55;;;;;;;;;;5095424;28;20227;-66
2022/08/18 09:53:36;;;;;;;5.40;5.00;;;;;;;;;;5095245;28;20310;-66
2022/08/18 09:56:04;;;;;;;5.18;4.78;;;;;;;;;;5095630;28;20294;-66
2022/08/18 09:58:57;;;;;;;5.43;4.90;;;;;;;;;;5095101;28;20204;-66
2022/08/18 10:01:48;;;;;;;5.00;4.70;;;;;;;;;;5076647;28;20223;-66
2022/08/18 10:04:31;;;;;;;4.93;4.63;;;;;;;;;;5075249;28;20210;-66
2022/08/18 10:07:16;;;;;;;5.22;4.82;;;;;;;;;;5095833;28;20211;-65
2022/08/18 10:09:47;;;;;;;5.22;4.82;;;;;;;;;;5095467;28;20207;-66
2022/08/18 10:12:35;;;;;;;5.50;5.10;;;;;;;;;;5094669;28;20208;-65
2022/08/18 10:15:28;;;;;;;5.47;5.07;;;;;;;;;;5095528;28;20234;-66
2022/08/18 10:18:02;;;;;;;4.95;4.65;;;;;;;;;;5094561;28;20232;-66
2022/08/18 10:20:38;;;;;;;5.03;4.72;;;;;;;;;;5094366;28;20207;-66
2022/08/18 10:23:06;;;;;;;5.20;4.90;;;;;;;;;;5094655;28;20470;-66
2022/08/18 10:25:36;;;;;;;4.85;4.55;;;;;;;;;;5094384;28;20319;-66
2022/08/18 10:28:04;;;;;;;5.32;5.03;;;;;;;;;;5094882;28;20200;-66
2022/08/18 10:31:02;;;;;;;5.30;4.97;;;;;;;;;;5093269;28;20296;-66
2022/08/18 10:33:48;;;;;;;5.10;4.78;;;;;;;;;;5106478;28;20199;-66
2022/08/18 10:36:33;;;;;;;5.40;5.00;;;;;;;;;;5093845;28;20213;-66
2022/08/18 10:39:04;;;;;;;4.80;4.50;;;;;;;;;;5094784;28;20202;-66
2022/08/18 10:41:32;;;;;;;5.50;5.20;;;;;;;;;;5094615;28;20485;-66
2022/08/18 10:44:00;;;;;;;5.18;4.88;;;;;;;;;;5094953;28;20548;-66
2022/08/18 10:46:29;;;;;;;5.00;4.70;;;;;;;;;;5094437;28;20264;-66
2022/08/18 10:49:06;;;;;;;5.25;4.85;;;;;;;;;;5094062;28;20292;-66
2022/08/18 10:51:49;;;;;;;4.93;4.63;;;;;;;;;;5094463;28;20233;-67
2022/08/18 10:54:22;;;;;;;5.43;5.03;;;;;;;;;;5093503;28;20583;-66
2022/08/18 10:56:50;;;;;;;5.13;4.80;;;;;;;;;;5093481;28;20591;-66
2022/08/18 10:59:22;;;;;;;5.30;5.00;;;;;;;;;;5094719;28;20212;-66
2022/08/18 11:01:58;;;;;;;5.55;5.07;;;;;;;;;;5113866;28;20198;-66
2022/08/18 11:04:28;;;;;;;5.38;5.00;;;;;;;;;;5113118;28;20255;-66
2022/08/18 11:07:02;;;;;;;5.20;4.90;;;;;;;;;;5114499;28;20249;-66
2022/08/18 11:09:30;;;;;;;5.43;5.13;;;;;;;;;;5113724;28;20203;-66
2022/08/18 11:11:58;;;;;;;5.30;4.97;;;;;;;;;;5114374;28;20234;-66
2022/08/18 11:14:38;;;;;;;5.30;4.90;;;;;;;;;;5114368;28;20606;-66
2022/08/18 11:17:09;;;;;;;5.32;5.03;;;;;;;;;;5114773;28;20203;-66
2022/08/18 11:19:38;;;;;;;5.30;4.90;;;;;;;;;;5114665;28;20202;-65
2022/08/18 11:22:06;;;;;;;5.50;5.18;;;;;;;;;;5113587;28;20648;-66
2022/08/18 11:24:34;;;;;;;5.45;5.05;;;;;;;;;;5113933;28;20210;-66
2022/08/18 11:27:02;;;;;;;5.60;5.22;;;;;;;;;;5113200;28;20255;-66
2022/08/18 11:29:32;;;;;;;5.53;5.13;;;;;;;;;;5120496;28;20302;-66
2022/08/18 11:32:01;;;;;;;5.22;4.93;;;;;;;;;;5133894;28;20880;-66
2022/08/18 11:34:31;;;;;;;5.35;4.97;;;;;;;;;;5134189;28;20199;-66
2022/08/18 11:36:59;;;;;;;5.68;5.28;;;;;;;;;;5133600;28;20608;-66
2022/08/18 11:39:29;;;;;;;5.07;4.78;;;;;;;;;;5134525;28;20206;-66
2022/08/18 11:41:56;;;;;;;5.07;4.78;;;;;;;;;;5133464;28;20263;-66
2022/08/18 11:44:27;;;;;;;5.15;4.85;;;;;;;;;;5135976;27;20237;-66
2022/08/18 11:46:56;;;;;;;5.50;5.10;;;;;;;;;;5138553;27;20206;-66
2022/08/18 11:49:31;;;;;;;5.40;5.00;;;;;;;;;;5138261;27;20293;-66
2022/08/18 11:52:01;;;;;;;5.43;5.03;;;;;;;;;;5138145;27;20226;-66
2022/08/18 11:54:34;;;;;;;5.10;4.80;;;;;;;;;;5131823;27;20203;-66
2022/08/18 11:57:16;;;;;;;5.68;5.28;;;;;;;;;;5117250;28;20264;-66
2022/08/18 11:59:44;;;;;;;5.75;5.35;;;;;;;;;;5116435;28;20202;-66
2022/08/18 12:02:11;;;;;;;6.30;5.90;;;;;;;;;;5116903;28;20195;-66
2022/08/18 12:04:41;;;;;;;5.80;5.35;;;;;;;;;;5117166;28;20640;-66
2022/08/18 12:07:10;;;;;;;5.63;5.22;;;;;;;;;;5116524;28;20213;-66
2022/08/18 12:09:42;;;;;;;6.00;5.60;;;;;;;;;;5116723;28;20202;-66
2022/08/18 12:12:15;;;;;;;5.97;5.57;;;;;;;;;;5116214;28;20272;-66
2022/08/18 12:14:52;;;;;;;6.30;5.78;;;;;;;;;;5117561;28;20224;-66
2022/08/18 12:17:20;;;;;;;5.80;5.40;;;;;;;;;;5116378;28;20202;-66
2022/08/18 12:19:47;;;;;;;6.38;5.97;;;;;;;;;;5116071;28;20203;-66
2022/08/18 12:22:16;;;;;;;6.25;5.85;;;;;;;;;;5123281;27;20579;-67
2022/08/18 12:24:45;;;;;;;6.10;5.70;;;;;;;;;;5134181;27;20210;-66
2022/08/18 12:27:14;;;;;;;5.78;5.38;;;;;;;;;;5116357;28;20298;-66
2022/08/18 12:29:42;;;;;;;6.15;5.72;;;;;;;;;;5115293;28;20238;-66
2022/08/18 12:32:09;;;;;;;5.45;5.10;;;;;;;;;;5116922;28;20355;-66
2022/08/18 12:34:37;;;;;;;5.65;5.35;;;;;;;;;;5116407;28;20199;-66
2022/08/18 12:37:05;;;;;;;5.78;5.38;;;;;;;;;;5115610;28;20210;-66
2022/08/18 12:39:32;;;;;;;5.85;5.45;;;;;;;;;;5115888;28;20206;-66
2022/08/18 12:42:01;;;;;;;6.32;5.93;;;;;;;;;;5114367;28;20594;-66
2022/08/18 12:44:29;;;;;;;6.20;5.80;;;;;;;;;;5115243;28;20252;-66
2022/08/18 12:46:57;;;;;;;5.93;5.53;;;;;;;;;;5116041;28;20202;-67
2022/08/18 12:49:25;;;;;;;6.75;6.30;;;;;;;;;;5115659;27;20217;-66
2022/08/18 12:51:54;;;;;;;6.65;6.15;;;;;;;;;;5115235;28;20234;-66
2022/08/18 12:54:21;;;;;;;6.82;6.32;;;;;;;;;;5115900;28;20602;-66
2022/08/18 12:56:50;;;;;;;6.38;5.97;;;;;;;;;;5114536;28;20297;-66
2022/08/18 12:59:19;;;;;;;6.53;6.03;;;;;;;;;;5115318;28;20275;-66
2022/08/18 13:01:46;;;;;;;6.68;6.28;;;;;;;;;;5115483;28;20199;-66
2022/08/18 13:04:15;;;;;;;6.38;5.97;;;;;;;;;;5115143;28;20256;-66
2022/08/18 13:06:45;;;;;;;6.13;5.72;;;;;;;;;;5113233;28;20272;-66
2022/08/18 13:09:12;;;;;;;6.70;6.20;;;;;;;;;;5115326;28;20215;-66
2022/08/18 13:11:40;;;;;;;6.25;5.85;;;;;;;;;;5114288;28;20234;-65
2022/08/18 13:14:08;;;;;;;6.80;6.30;;;;;;;;;;5114317;28;20598;-66
2022/08/18 13:16:37;;;;;;;6.72;6.32;;;;;;;;;;5119400;27;20202;-66
2022/08/18 13:19:05;;;;;;;6.90;6.40;;;;;;;;;;5136149;27;20198;-66
2022/08/18 13:21:32;;;;;;;6.70;6.30;;;;;;;;;;5135965;27;20209;-66
2022/08/18 13:24:00;;;;;;;6.97;6.57;;;;;;;;;;5133735;27;20635;-66
2022/08/18 13:26:29;;;;;;;6.70;6.30;;;;;;;;;;5114206;28;20203;-66
2022/08/18 13:28:57;;;;;;;6.80;6.30;;;;;;;;;;5112563;28;20634;-66
2022/08/18 13:31:25;;;;;;;6.57;6.18;;;;;;;;;;5114110;28;20245;-66
2022/08/18 13:33:55;;;;;;;6.70;6.20;;;;;;;;;;5113562;28;20214;-66
2022/08/18 13:36:22;;;;;;;6.38;5.88;;;;;;;;;;5112951;28;20233;-66
2022/08/18 13:38:51;;;;;;;6.78;6.38;;;;;;;;;;5114321;28;20260;-66
2022/08/18 13:41:18;;;;;;;6.88;6.38;;;;;;;;;;5114026;28;20293;-66
2022/08/18 13:43:46;;;;;;;7.10;6.60;;;;;;;;;;5114370;27;20299;-66
2022/08/18 13:46:15;;;;;;;6.93;6.47;;;;;;;;;;5116895;27;20214;-66
2022/08/18 13:48:43;;;;;;;6.93;6.53;;;;;;;;;;5114514;28;20305;-66
2022/08/18 13:51:14;;;;;;;7.30;6.80;;;;;;;;;;5112920;28;20226;-66
2022/08/18 13:53:42;;;;;;;6.50;6.10;;;;;;;;;;5113502;28;20600;-66
2022/08/18 13:56:09;;;;;;;7.05;6.55;;;;;;;;;;5113881;28;20259;-66
2022/08/18 13:58:37;;;;;;;7.13;6.63;;;;;;;;;;5113748;28;20301;-65
2022/08/18 14:01:07;;;;;;;6.60;6.20;;;;;;;;;;5114782;28;20245;-66
2022/08/18 14:03:35;;;;;;;6.80;6.40;;;;;;;;;;5114145;28;20705;-66
2022/08/18 14:06:02;;;;;;;6.70;6.30;;;;;;;;;;5114264;28;20199;-66
2022/08/18 14:08:31;;;;;;;6.97;6.57;;;;;;;;;;5112931;28;20207;-66
2022/08/18 14:10:59;;;;;;;7.13;6.63;;;;;;;;;;5114367;28;20203;-66
2022/08/18 14:13:27;;;;;;;6.70;6.20;;;;;;;;;;5113854;27;20195;-66
2022/08/18 14:15:55;;;;;;;6.80;6.40;;;;;;;;;;5113355;28;20210;-66
2022/08/18 14:18:22;;;;;;;7.43;6.93;;;;;;;;;;5113428;28;20206;-66
2022/08/18 14:26:48;;;;;;;7.25;6.75;;;;;;;;;;5105703;28;20213;-66
2022/08/18 14:29:16;;;;;;;6.85;6.43;;;;;;;;;;5112476;28;20288;-66
2022/08/18 14:31:43;;;;;;;7.43;6.93;;;;;;;;;;5113828;28;20223;-66
2022/08/18 14:34:10;;;;;;;7.93;7.40;;;;;;;;;;5113118;28;20271;-66
2022/08/18 14:36:38;;;;;;;7.80;7.30;;;;;;;;;;5112926;28;20591;-66
2022/08/18 14:39:06;;;;;;;7.10;6.60;;;;;;;;;;5116627;27;20198;-66
2022/08/18 14:41:35;;;;;;;7.32;6.75;;;;;;;;;;5133767;27;20503;-66
2022/08/18 14:44:02;;;;;;;6.97;6.50;;;;;;;;;;5134012;27;20206;-66
2022/08/18 14:46:29;;;;;;;6.90;6.40;;;;;;;;;;5133999;27;20527;-66
2022/08/18 14:48:57;;;;;;;7.10;6.60;;;;;;;;;;5134395;27;20279;-66
2022/08/18 14:51:25;;;;;;;7.93;7.43;;;;;;;;;;5133716;27;20515;-66
2022/08/18 14:53:52;;;;;;;7.35;6.85;;;;;;;;;;5133145;27;20585;-66
2022/08/18 14:56:22;;;;;;;6.82;6.32;;;;;;;;;;5135072;27;20506;-66
2022/08/18 14:58:49;;;;;;;7.18;6.57;;;;;;;;;;5135204;27;20202;-66
2022/08/18 15:01:16;;;;;;;7.30;6.80;;;;;;;;;;5133382;27;20210;-66
2022/08/18 15:03:44;;;;;;;6.78;6.35;;;;;;;;;;5134432;27;20202;-66
2022/08/18 15:06:11;;;;;;;7.15;6.65;;;;;;;;;;5133334;27;20289;-66
2022/08/18 15:08:39;;;;;;;7.47;6.88;;;;;;;;;;5113961;28;20248;-66
2022/08/18 15:11:07;;;;;;;7.60;7.07;;;;;;;;;;5112223;28;20232;-66
2022/08/18 15:13:37;;;;;;;7.90;7.40;;;;;;;;;;5113387;28;20294;-66
2022/08/18 15:16:10;;;;;;;7.35;6.88;;;;;;;;;;5112916;28;20574;-66
2022/08/18 15:18:37;;;;;;;7.70;7.20;;;;;;;;;;5112977;28;20533;-66
2022/08/18 15:26:37;;;;;;;7.18;6.78;;;;;;;;;;5113725;28;20210;-66